sensor_id;sensor_type;location;lat;lon;timestamp;P1;durP1;ratioP1;P2;durP2;ratioP2
12852;SDS011;6495;51.808;7.478;2023-05-15T00:00:14;5.45;;;4.68;;
12852;SDS011;6495;51.808;7.478;2023-05-15T00:02:44;4.68;;;4.00;;
12852;SDS011;6495;51.808;7.478;2023-05-15T00:05:12;4.47;;;4.07;;
12852;SDS011;6495;51.808;7.478;2023-05-15T00:07:41;5.05;;;4.32;;
12852;SDS011;6495;51.808;7.478;2023-05-15T00:14:36;5.07;;;4.43;;
12852;SDS011;6495;51.808;7.478;2023-05-15T00:24:13;9.10;;;5.70;;
12852;SDS011;6495;51.808;7.478;2023-05-15T00:26:42;4.93;;;4.43;;
12852;SDS011;6495;51.808;7.478;2023-05-15T00:29:10;5.50;;;4.75;;
12852;SDS011;6495;51.808;7.478;2023-05-15T00:31:40;5.43;;;4.82;;
12852;SDS011;6495;51.808;7.478;2023-05-15T00:34:08;5.72;;;4.53;;
12852;SDS011;6495;51.808;7.478;2023-05-15T00:36:36;5.10;;;4.60;;
12852;SDS011;6495;51.808;7.478;2023-05-15T00:39:05;6.03;;;5.07;;
12852;SDS011;6495;51.808;7.478;2023-05-15T00:41:34;6.35;;;4.95;;
12852;SDS011;6495;51.808;7.478;2023-05-15T00:44:05;7.72;;;4.60;;
12852;SDS011;6495;51.808;7.478;2023-05-15T00:46:34;5.40;;;4.75;;
12852;SDS011;6495;51.808;7.478;2023-05-15T00:49:04;7.90;;;5.07;;
12852;SDS011;6495;51.808;7.478;2023-05-15T00:51:39;8.52;;;4.57;;
12852;SDS011;6495;51.808;7.478;2023-05-15T00:54:15;5.60;;;4.25;;
12852;SDS011;6495;51.808;7.478;2023-05-15T00:56:45;5.75;;;4.93;;
12852;SDS011;6495;51.808;7.478;2023-05-15T00:59:17;5.22;;;4.65;;
12852;SDS011;6495;51.808;7.478;2023-05-15T01:01:49;5.28;;;4.60;;
12852;SDS011;6495;51.808;7.478;2023-05-15T01:04:17;6.32;;;5.05;;
12852;SDS011;6495;51.808;7.478;2023-05-15T01:06:48;6.65;;;5.20;;
12852;SDS011;6495;51.808;7.478;2023-05-15T01:09:19;7.32;;;5.30;;
12852;SDS011;6495;51.808;7.478;2023-05-15T01:11:52;6.60;;;5.55;;
12852;SDS011;6495;51.808;7.478;2023-05-15T01:14:24;5.22;;;4.72;;
12852;SDS011;6495;51.808;7.478;2023-05-15T01:16:52;5.90;;;4.72;;
12852;SDS011;6495;51.808;7.478;2023-05-15T01:19:20;5.95;;;5.15;;
12852;SDS011;6495;51.808;7.478;2023-05-15T01:21:56;9.52;;;5.28;;
12852;SDS011;6495;51.808;7.478;2023-05-15T01:24:56;5.45;;;4.55;;
12852;SDS011;6495;51.808;7.478;2023-05-15T01:27:58;6.72;;;5.00;;
12852;SDS011;6495;51.808;7.478;2023-05-15T01:30:35;7.00;;;5.28;;
12852;SDS011;6495;51.808;7.478;2023-05-15T01:33:10;6.93;;;5.20;;
12852;SDS011;6495;51.808;7.478;2023-05-15T01:35:48;5.28;;;4.53;;
12852;SDS011;6495;51.808;7.478;2023-05-15T01:38:26;5.95;;;4.90;;
12852;SDS011;6495;51.808;7.478;2023-05-15T01:41:05;5.97;;;4.93;;
12852;SDS011;6495;51.808;7.478;2023-05-15T01:43:45;5.95;;;5.32;;
12852;SDS011;6495;51.808;7.478;2023-05-15T01:46:23;5.18;;;4.63;;
12852;SDS011;6495;51.808;7.478;2023-05-15T01:48:57;6.47;;;5.40;;
12852;SDS011;6495;51.808;7.478;2023-05-15T01:51:29;5.07;;;4.60;;
12852;SDS011;6495;51.808;7.478;2023-05-15T01:53:59;5.90;;;5.05;;
12852;SDS011;6495;51.808;7.478;2023-05-15T01:56:31;8.55;;;5.18;;
12852;SDS011;6495;51.808;7.478;2023-05-15T02:01:57;5.47;;;4.93;;
12852;SDS011;6495;51.808;7.478;2023-05-15T02:04:27;6.68;;;4.95;;
12852;SDS011;6495;51.808;7.478;2023-05-15T02:06:56;8.93;;;5.40;;
12852;SDS011;6495;51.808;7.478;2023-05-15T02:09:27;5.68;;;4.90;;
12852;SDS011;6495;51.808;7.478;2023-05-15T02:11:56;5.35;;;4.68;;
12852;SDS011;6495;51.808;7.478;2023-05-15T02:14:29;7.30;;;5.47;;
12852;SDS011;6495;51.808;7.478;2023-05-15T02:16:58;7.00;;;5.43;;
12852;SDS011;6495;51.808;7.478;2023-05-15T02:19:27;6.43;;;5.78;;
12852;SDS011;6495;51.808;7.478;2023-05-15T02:21:55;6.00;;;5.07;;
12852;SDS011;6495;51.808;7.478;2023-05-15T02:24:23;6.05;;;5.28;;
12852;SDS011;6495;51.808;7.478;2023-05-15T02:26:53;7.50;;;5.28;;
12852;SDS011;6495;51.808;7.478;2023-05-15T02:29:36;6.97;;;5.20;;
12852;SDS011;6495;51.808;7.478;2023-05-15T02:32:29;9.35;;;5.93;;
12852;SDS011;6495;51.808;7.478;2023-05-15T02:35:11;7.13;;;5.47;;
12852;SDS011;6495;51.808;7.478;2023-05-15T02:37:48;6.35;;;5.25;;
12852;SDS011;6495;51.808;7.478;2023-05-15T02:40:23;6.53;;;5.15;;
12852;SDS011;6495;51.808;7.478;2023-05-15T02:42:55;5.63;;;5.13;;
12852;SDS011;6495;51.808;7.478;2023-05-15T02:45:26;7.05;;;5.15;;
12852;SDS011;6495;51.808;7.478;2023-05-15T02:47:56;8.95;;;5.07;;
12852;SDS011;6495;51.808;7.478;2023-05-15T02:50:26;6.90;;;5.22;;
12852;SDS011;6495;51.808;7.478;2023-05-15T02:53:00;5.00;;;4.47;;
12852;SDS011;6495;51.808;7.478;2023-05-15T02:55:53;5.90;;;5.18;;
12852;SDS011;6495;51.808;7.478;2023-05-15T03:05:20;6.78;;;5.03;;
12852;SDS011;6495;51.808;7.478;2023-05-15T03:07:49;9.70;;;5.80;;
12852;SDS011;6495;51.808;7.478;2023-05-15T03:10:19;6.15;;;5.43;;
12852;SDS011;6495;51.808;7.478;2023-05-15T03:12:49;7.07;;;5.40;;
12852;SDS011;6495;51.808;7.478;2023-05-15T03:15:17;6.97;;;5.72;;
12852;SDS011;6495;51.808;7.478;2023-05-15T03:17:45;6.95;;;5.60;;
12852;SDS011;6495;51.808;7.478;2023-05-15T03:20:23;8.30;;;5.85;;
12852;SDS011;6495;51.808;7.478;2023-05-15T03:22:51;8.50;;;5.85;;
12852;SDS011;6495;51.808;7.478;2023-05-15T03:25:20;7.70;;;5.90;;
12852;SDS011;6495;51.808;7.478;2023-05-15T03:27:49;8.07;;;6.30;;
12852;SDS011;6495;51.808;7.478;2023-05-15T03:30:18;8.52;;;7.20;;
12852;SDS011;6495;51.808;7.478;2023-05-15T03:32:46;8.98;;;6.88;;
12852;SDS011;6495;51.808;7.478;2023-05-15T03:35:14;9.68;;;6.55;;
12852;SDS011;6495;51.808;7.478;2023-05-15T03:37:44;9.10;;;7.20;;
12852;SDS011;6495;51.808;7.478;2023-05-15T03:40:12;8.25;;;6.30;;
12852;SDS011;6495;51.808;7.478;2023-05-15T03:42:41;12.88;;;7.82;;
12852;SDS011;6495;51.808;7.478;2023-05-15T03:45:10;11.23;;;8.13;;
12852;SDS011;6495;51.808;7.478;2023-05-15T03:47:38;13.05;;;7.78;;
12852;SDS011;6495;51.808;7.478;2023-05-15T03:50:08;10.40;;;7.30;;
12852;SDS011;6495;51.808;7.478;2023-05-15T03:52:37;11.85;;;8.18;;
12852;SDS011;6495;51.808;7.478;2023-05-15T03:55:09;10.55;;;8.07;;
12852;SDS011;6495;51.808;7.478;2023-05-15T03:57:38;9.55;;;7.40;;
12852;SDS011;6495;51.808;7.478;2023-05-15T04:00:07;12.57;;;9.02;;
12852;SDS011;6495;51.808;7.478;2023-05-15T04:02:40;9.93;;;8.50;;
12852;SDS011;6495;51.808;7.478;2023-05-15T04:05:09;11.63;;;8.70;;
12852;SDS011;6495;51.808;7.478;2023-05-15T04:07:37;11.65;;;8.73;;
12852;SDS011;6495;51.808;7.478;2023-05-15T04:10:05;15.10;;;9.57;;
12852;SDS011;6495;51.808;7.478;2023-05-15T04:12:36;15.55;;;9.63;;
12852;SDS011;6495;51.808;7.478;2023-05-15T04:18:23;14.70;;;9.77;;
12852;SDS011;6495;51.808;7.478;2023-05-15T04:20:51;12.60;;;9.65;;
12852;SDS011;6495;51.808;7.478;2023-05-15T04:23:19;11.63;;;8.90;;
12852;SDS011;6495;51.808;7.478;2023-05-15T04:25:48;13.07;;;9.93;;
12852;SDS011;6495;51.808;7.478;2023-05-15T04:28:20;12.60;;;9.57;;
12852;SDS011;6495;51.808;7.478;2023-05-15T04:30:48;12.95;;;9.82;;
12852;SDS011;6495;51.808;7.478;2023-05-15T04:33:16;14.73;;;10.15;;
12852;SDS011;6495;51.808;7.478;2023-05-15T04:35:45;15.35;;;10.38;;
12852;SDS011;6495;51.808;7.478;2023-05-15T04:38:15;14.10;;;10.32;;
12852;SDS011;6495;51.808;7.478;2023-05-15T04:40:44;14.35;;;10.50;;
12852;SDS011;6495;51.808;7.478;2023-05-15T04:43:12;14.80;;;10.20;;
12852;SDS011;6495;51.808;7.478;2023-05-15T04:45:42;17.40;;;11.00;;
12852;SDS011;6495;51.808;7.478;2023-05-15T04:48:10;16.83;;;11.38;;
12852;SDS011;6495;51.808;7.478;2023-05-15T04:53:36;15.18;;;10.43;;
12852;SDS011;6495;51.808;7.478;2023-05-15T04:56:04;17.17;;;10.93;;
12852;SDS011;6495;51.808;7.478;2023-05-15T05:02:07;18.58;;;11.32;;
12852;SDS011;6495;51.808;7.478;2023-05-15T05:04:36;18.55;;;11.80;;
12852;SDS011;6495;51.808;7.478;2023-05-15T05:07:26;18.60;;;12.63;;
12852;SDS011;6495;51.808;7.478;2023-05-15T05:09:56;20.55;;;13.45;;
12852;SDS011;6495;51.808;7.478;2023-05-15T05:12:24;19.25;;;12.88;;
12852;SDS011;6495;51.808;7.478;2023-05-15T05:14:58;19.00;;;13.93;;
12852;SDS011;6495;51.808;7.478;2023-05-15T05:17:32;21.27;;;13.07;;
12852;SDS011;6495;51.808;7.478;2023-05-15T05:20:00;26.48;;;15.45;;
12852;SDS011;6495;51.808;7.478;2023-05-15T05:22:30;21.63;;;14.98;;
12852;SDS011;6495;51.808;7.478;2023-05-15T05:24:58;23.35;;;15.40;;
12852;SDS011;6495;51.808;7.478;2023-05-15T05:27:27;24.20;;;16.13;;
12852;SDS011;6495;51.808;7.478;2023-05-15T05:29:56;24.88;;;17.05;;
12852;SDS011;6495;51.808;7.478;2023-05-15T05:32:24;28.85;;;16.90;;
12852;SDS011;6495;51.808;7.478;2023-05-15T05:34:53;32.17;;;16.23;;
12852;SDS011;6495;51.808;7.478;2023-05-15T05:37:22;33.67;;;18.55;;
12852;SDS011;6495;51.808;7.478;2023-05-15T05:39:50;30.25;;;19.17;;
12852;SDS011;6495;51.808;7.478;2023-05-15T05:42:18;33.30;;;18.15;;
12852;SDS011;6495;51.808;7.478;2023-05-15T05:44:46;31.90;;;18.83;;
12852;SDS011;6495;51.808;7.478;2023-05-15T05:47:14;34.92;;;19.38;;
12852;SDS011;6495;51.808;7.478;2023-05-15T05:49:43;30.85;;;17.63;;
12852;SDS011;6495;51.808;7.478;2023-05-15T05:52:14;30.63;;;16.65;;
12852;SDS011;6495;51.808;7.478;2023-05-15T05:54:43;31.50;;;18.75;;
12852;SDS011;6495;51.808;7.478;2023-05-15T05:57:13;28.35;;;17.00;;
12852;SDS011;6495;51.808;7.478;2023-05-15T05:59:42;29.35;;;17.95;;
12852;SDS011;6495;51.808;7.478;2023-05-15T06:02:11;26.95;;;16.70;;
12852;SDS011;6495;51.808;7.478;2023-05-15T06:04:40;30.83;;;17.65;;
12852;SDS011;6495;51.808;7.478;2023-05-15T06:07:08;29.23;;;17.30;;
12852;SDS011;6495;51.808;7.478;2023-05-15T06:09:38;32.13;;;18.52;;
12852;SDS011;6495;51.808;7.478;2023-05-15T06:12:06;31.08;;;16.73;;
12852;SDS011;6495;51.808;7.478;2023-05-15T06:14:35;29.65;;;17.20;;
12852;SDS011;6495;51.808;7.478;2023-05-15T06:17:03;27.85;;;17.27;;
12852;SDS011;6495;51.808;7.478;2023-05-15T06:19:32;28.70;;;17.67;;
12852;SDS011;6495;51.808;7.478;2023-05-15T06:22:00;30.45;;;17.27;;
12852;SDS011;6495;51.808;7.478;2023-05-15T06:24:29;29.48;;;17.00;;
12852;SDS011;6495;51.808;7.478;2023-05-15T06:26:58;30.88;;;16.88;;
12852;SDS011;6495;51.808;7.478;2023-05-15T06:29:27;30.30;;;16.92;;
12852;SDS011;6495;51.808;7.478;2023-05-15T06:31:55;33.25;;;17.55;;
12852;SDS011;6495;51.808;7.478;2023-05-15T06:34:24;31.85;;;18.38;;
12852;SDS011;6495;51.808;7.478;2023-05-15T06:36:52;31.83;;;17.35;;
12852;SDS011;6495;51.808;7.478;2023-05-15T06:39:20;28.17;;;16.08;;
12852;SDS011;6495;51.808;7.478;2023-05-15T06:41:49;30.88;;;17.60;;
12852;SDS011;6495;51.808;7.478;2023-05-15T06:44:24;28.98;;;16.92;;
12852;SDS011;6495;51.808;7.478;2023-05-15T06:46:53;37.15;;;19.27;;
12852;SDS011;6495;51.808;7.478;2023-05-15T06:49:21;28.95;;;16.17;;
12852;SDS011;6495;51.808;7.478;2023-05-15T06:51:51;31.90;;;17.05;;
12852;SDS011;6495;51.808;7.478;2023-05-15T06:54:20;32.10;;;16.88;;
12852;SDS011;6495;51.808;7.478;2023-05-15T06:56:48;30.42;;;17.40;;
12852;SDS011;6495;51.808;7.478;2023-05-15T06:59:17;30.23;;;17.40;;
12852;SDS011;6495;51.808;7.478;2023-05-15T07:01:46;30.42;;;16.85;;
12852;SDS011;6495;51.808;7.478;2023-05-15T07:04:15;34.30;;;18.10;;
12852;SDS011;6495;51.808;7.478;2023-05-15T07:06:43;30.75;;;17.23;;
12852;SDS011;6495;51.808;7.478;2023-05-15T07:09:11;31.38;;;17.92;;
12852;SDS011;6495;51.808;7.478;2023-05-15T07:11:41;28.25;;;15.90;;
12852;SDS011;6495;51.808;7.478;2023-05-15T07:14:10;30.80;;;16.55;;
12852;SDS011;6495;51.808;7.478;2023-05-15T07:16:38;33.75;;;17.13;;
12852;SDS011;6495;51.808;7.478;2023-05-15T07:19:08;28.45;;;17.05;;
12852;SDS011;6495;51.808;7.478;2023-05-15T07:21:37;35.63;;;19.23;;
12852;SDS011;6495;51.808;7.478;2023-05-15T07:24:06;30.17;;;18.23;;
12852;SDS011;6495;51.808;7.478;2023-05-15T07:26:34;32.03;;;18.70;;
12852;SDS011;6495;51.808;7.478;2023-05-15T07:29:23;32.03;;;17.60;;
12852;SDS011;6495;51.808;7.478;2023-05-15T07:31:54;36.95;;;19.85;;
12852;SDS011;6495;51.808;7.478;2023-05-15T07:34:24;31.48;;;17.17;;
12852;SDS011;6495;51.808;7.478;2023-05-15T07:36:53;32.80;;;18.33;;
12852;SDS011;6495;51.808;7.478;2023-05-15T07:39:21;34.90;;;18.60;;
12852;SDS011;6495;51.808;7.478;2023-05-15T07:41:49;35.20;;;18.55;;
12852;SDS011;6495;51.808;7.478;2023-05-15T07:44:18;30.45;;;16.45;;
12852;SDS011;6495;51.808;7.478;2023-05-15T07:46:46;32.88;;;18.55;;
12852;SDS011;6495;51.808;7.478;2023-05-15T07:49:14;29.38;;;16.83;;
12852;SDS011;6495;51.808;7.478;2023-05-15T07:51:44;32.35;;;17.80;;
12852;SDS011;6495;51.808;7.478;2023-05-15T07:54:13;30.48;;;17.75;;
12852;SDS011;6495;51.808;7.478;2023-05-15T07:56:41;31.48;;;18.30;;
12852;SDS011;6495;51.808;7.478;2023-05-15T07:59:09;32.95;;;19.13;;
12852;SDS011;6495;51.808;7.478;2023-05-15T08:01:38;29.65;;;16.75;;
12852;SDS011;6495;51.808;7.478;2023-05-15T08:04:07;32.30;;;17.35;;
12852;SDS011;6495;51.808;7.478;2023-05-15T08:06:35;33.20;;;17.40;;
12852;SDS011;6495;51.808;7.478;2023-05-15T08:09:09;28.13;;;15.88;;
12852;SDS011;6495;51.808;7.478;2023-05-15T08:11:38;33.42;;;18.33;;
12852;SDS011;6495;51.808;7.478;2023-05-15T08:14:06;29.83;;;16.40;;
12852;SDS011;6495;51.808;7.478;2023-05-15T08:16:39;29.38;;;16.75;;
12852;SDS011;6495;51.808;7.478;2023-05-15T08:19:07;31.05;;;17.33;;
12852;SDS011;6495;51.808;7.478;2023-05-15T08:21:36;32.33;;;17.48;;
12852;SDS011;6495;51.808;7.478;2023-05-15T08:24:10;30.33;;;17.20;;
12852;SDS011;6495;51.808;7.478;2023-05-15T08:26:39;32.28;;;18.00;;
12852;SDS011;6495;51.808;7.478;2023-05-15T08:29:07;31.83;;;16.75;;
12852;SDS011;6495;51.808;7.478;2023-05-15T08:31:36;32.30;;;17.73;;
12852;SDS011;6495;51.808;7.478;2023-05-15T08:34:05;29.25;;;16.98;;
12852;SDS011;6495;51.808;7.478;2023-05-15T08:36:33;30.77;;;16.20;;
12852;SDS011;6495;51.808;7.478;2023-05-15T08:39:04;29.85;;;15.75;;
12852;SDS011;6495;51.808;7.478;2023-05-15T08:41:37;30.02;;;17.40;;
12852;SDS011;6495;51.808;7.478;2023-05-15T08:44:14;26.58;;;16.23;;
12852;SDS011;6495;51.808;7.478;2023-05-15T08:46:43;28.05;;;16.95;;
12852;SDS011;6495;51.808;7.478;2023-05-15T08:49:15;35.60;;;19.25;;
12852;SDS011;6495;51.808;7.478;2023-05-15T08:52:03;30.85;;;18.05;;
12852;SDS011;6495;51.808;7.478;2023-05-15T08:54:32;29.38;;;16.85;;
12852;SDS011;6495;51.808;7.478;2023-05-15T08:57:03;32.83;;;18.35;;
12852;SDS011;6495;51.808;7.478;2023-05-15T08:59:32;32.58;;;17.95;;
12852;SDS011;6495;51.808;7.478;2023-05-15T09:02:01;30.70;;;17.27;;
12852;SDS011;6495;51.808;7.478;2023-05-15T09:04:29;30.25;;;16.60;;
12852;SDS011;6495;51.808;7.478;2023-05-15T09:06:58;32.53;;;16.80;;
12852;SDS011;6495;51.808;7.478;2023-05-15T09:09:32;29.85;;;18.75;;
12852;SDS011;6495;51.808;7.478;2023-05-15T09:12:00;24.63;;;15.18;;
12852;SDS011;6495;51.808;7.478;2023-05-15T09:14:36;27.27;;;16.35;;
12852;SDS011;6495;51.808;7.478;2023-05-15T09:17:05;28.02;;;16.90;;
12852;SDS011;6495;51.808;7.478;2023-05-15T09:19:34;29.42;;;17.35;;
12852;SDS011;6495;51.808;7.478;2023-05-15T09:22:13;26.83;;;15.68;;
12852;SDS011;6495;51.808;7.478;2023-05-15T09:24:43;23.08;;;15.10;;
12852;SDS011;6495;51.808;7.478;2023-05-15T09:27:15;26.05;;;16.23;;
12852;SDS011;6495;51.808;7.478;2023-05-15T09:29:43;32.25;;;18.17;;
12852;SDS011;6495;51.808;7.478;2023-05-15T09:32:13;31.85;;;17.83;;
12852;SDS011;6495;51.808;7.478;2023-05-15T09:34:42;26.90;;;16.00;;
12852;SDS011;6495;51.808;7.478;2023-05-15T09:37:12;29.30;;;17.85;;
12852;SDS011;6495;51.808;7.478;2023-05-15T09:40:02;28.23;;;15.73;;
12852;SDS011;6495;51.808;7.478;2023-05-15T09:42:37;25.50;;;15.25;;
12852;SDS011;6495;51.808;7.478;2023-05-15T09:45:10;25.52;;;14.82;;
12852;SDS011;6495;51.808;7.478;2023-05-15T09:47:44;27.88;;;17.15;;
12852;SDS011;6495;51.808;7.478;2023-05-15T09:50:17;27.80;;;15.77;;
12852;SDS011;6495;51.808;7.478;2023-05-15T09:53:00;23.10;;;14.30;;
12852;SDS011;6495;51.808;7.478;2023-05-15T09:55:30;25.02;;;15.57;;
12852;SDS011;6495;51.808;7.478;2023-05-15T09:58:04;23.73;;;13.85;;
12852;SDS011;6495;51.808;7.478;2023-05-15T10:00:39;22.45;;;14.00;;
12852;SDS011;6495;51.808;7.478;2023-05-15T10:03:15;25.15;;;14.55;;
12852;SDS011;6495;51.808;7.478;2023-05-15T10:05:46;27.25;;;15.10;;
12852;SDS011;6495;51.808;7.478;2023-05-15T10:08:15;24.17;;;15.18;;
12852;SDS011;6495;51.808;7.478;2023-05-15T10:10:57;23.42;;;15.25;;
12852;SDS011;6495;51.808;7.478;2023-05-15T10:13:37;25.67;;;15.23;;
12852;SDS011;6495;51.808;7.478;2023-05-15T10:16:06;23.58;;;15.85;;
12852;SDS011;6495;51.808;7.478;2023-05-15T10:18:35;23.23;;;14.73;;
12852;SDS011;6495;51.808;7.478;2023-05-15T10:21:07;25.95;;;15.68;;
12852;SDS011;6495;51.808;7.478;2023-05-15T10:23:36;26.63;;;15.30;;
12852;SDS011;6495;51.808;7.478;2023-05-15T10:26:13;23.70;;;15.25;;
12852;SDS011;6495;51.808;7.478;2023-05-15T10:28:49;21.85;;;14.38;;
12852;SDS011;6495;51.808;7.478;2023-05-15T10:31:18;24.42;;;15.10;;
12852;SDS011;6495;51.808;7.478;2023-05-15T10:33:49;25.65;;;15.00;;
12852;SDS011;6495;51.808;7.478;2023-05-15T10:36:20;22.58;;;15.48;;
12852;SDS011;6495;51.808;7.478;2023-05-15T10:38:50;23.85;;;16.38;;
12852;SDS011;6495;51.808;7.478;2023-05-15T10:41:22;25.20;;;15.38;;
12852;SDS011;6495;51.808;7.478;2023-05-15T10:43:58;28.27;;;16.25;;
12852;SDS011;6495;51.808;7.478;2023-05-15T10:46:28;28.25;;;15.73;;
12852;SDS011;6495;51.808;7.478;2023-05-15T10:49:01;25.70;;;15.75;;
12852;SDS011;6495;51.808;7.478;2023-05-15T10:51:32;23.70;;;16.38;;
12852;SDS011;6495;51.808;7.478;2023-05-15T10:54:07;25.98;;;14.85;;
12852;SDS011;6495;51.808;7.478;2023-05-15T10:56:38;26.10;;;14.52;;
12852;SDS011;6495;51.808;7.478;2023-05-15T10:59:10;23.38;;;14.00;;
12852;SDS011;6495;51.808;7.478;2023-05-15T11:01:42;23.25;;;14.60;;
12852;SDS011;6495;51.808;7.478;2023-05-15T11:04:11;22.92;;;13.52;;
12852;SDS011;6495;51.808;7.478;2023-05-15T11:06:42;22.67;;;13.52;;
12852;SDS011;6495;51.808;7.478;2023-05-15T11:09:33;18.15;;;12.05;;
12852;SDS011;6495;51.808;7.478;2023-05-15T11:12:07;17.02;;;11.15;;
12852;SDS011;6495;51.808;7.478;2023-05-15T11:14:39;14.95;;;11.00;;
12852;SDS011;6495;51.808;7.478;2023-05-15T11:17:10;13.02;;;9.98;;
12852;SDS011;6495;51.808;7.478;2023-05-15T11:19:54;13.23;;;9.90;;
12852;SDS011;6495;51.808;7.478;2023-05-15T11:22:28;15.82;;;10.65;;
12852;SDS011;6495;51.808;7.478;2023-05-15T11:25:03;16.08;;;10.82;;
12852;SDS011;6495;51.808;7.478;2023-05-15T11:27:37;16.88;;;11.35;;
12852;SDS011;6495;51.808;7.478;2023-05-15T11:30:10;20.23;;;11.32;;
12852;SDS011;6495;51.808;7.478;2023-05-15T11:32:49;17.23;;;10.32;;
12852;SDS011;6495;51.808;7.478;2023-05-15T11:35:33;14.38;;;8.85;;
12852;SDS011;6495;51.808;7.478;2023-05-15T11:38:11;9.75;;;7.20;;
12852;SDS011;6495;51.808;7.478;2023-05-15T11:40:48;9.40;;;7.38;;
12852;SDS011;6495;51.808;7.478;2023-05-15T11:43:30;10.40;;;7.63;;
12852;SDS011;6495;51.808;7.478;2023-05-15T11:46:13;9.57;;;7.72;;
12852;SDS011;6495;51.808;7.478;2023-05-15T11:48:53;10.48;;;7.53;;
12852;SDS011;6495;51.808;7.478;2023-05-15T11:51:36;12.05;;;8.30;;
12852;SDS011;6495;51.808;7.478;2023-05-15T11:54:18;12.63;;;8.77;;
12852;SDS011;6495;51.808;7.478;2023-05-15T11:56:59;12.23;;;7.93;;
12852;SDS011;6495;51.808;7.478;2023-05-15T11:59:34;10.05;;;7.50;;
12852;SDS011;6495;51.808;7.478;2023-05-15T12:02:23;13.68;;;9.18;;
12852;SDS011;6495;51.808;7.478;2023-05-15T12:05:00;10.05;;;8.27;;
12852;SDS011;6495;51.808;7.478;2023-05-15T12:07:57;14.23;;;9.52;;
12852;SDS011;6495;51.808;7.478;2023-05-15T12:11:05;11.95;;;8.13;;
12852;SDS011;6495;51.808;7.478;2023-05-15T12:14:09;12.27;;;7.85;;
12852;SDS011;6495;51.808;7.478;2023-05-15T12:17:12;11.13;;;8.20;;
12852;SDS011;6495;51.808;7.478;2023-05-15T12:20:04;8.00;;;5.82;;
12852;SDS011;6495;51.808;7.478;2023-05-15T12:22:38;10.82;;;7.55;;
12852;SDS011;6495;51.808;7.478;2023-05-15T12:25:25;9.85;;;7.10;;
12852;SDS011;6495;51.808;7.478;2023-05-15T12:28:47;10.43;;;7.38;;
12852;SDS011;6495;51.808;7.478;2023-05-15T12:51:14;7.53;;;5.45;;
12852;SDS011;6495;51.808;7.478;2023-05-15T14:23:32;5.53;;;3.42;;
12852;SDS011;6495;51.808;7.478;2023-05-15T14:47:38;5.55;;;3.80;;
12852;SDS011;6495;51.808;7.478;2023-05-15T14:50:52;6.00;;;3.70;;
12852;SDS011;6495;51.808;7.478;2023-05-15T14:54:14;6.80;;;4.53;;
12852;SDS011;6495;51.808;7.478;2023-05-15T15:15:21;4.35;;;3.20;;
12852;SDS011;6495;51.808;7.478;2023-05-15T15:21:27;6.78;;;5.57;;
12852;SDS011;6495;51.808;7.478;2023-05-15T15:24:09;5.15;;;4.55;;
12852;SDS011;6495;51.808;7.478;2023-05-15T15:27:05;6.00;;;4.35;;
12852;SDS011;6495;51.808;7.478;2023-05-15T15:29:41;7.57;;;4.32;;
12852;SDS011;6495;51.808;7.478;2023-05-15T15:32:24;4.70;;;4.30;;
12852;SDS011;6495;51.808;7.478;2023-05-15T15:35:50;5.40;;;4.65;;
12852;SDS011;6495;51.808;7.478;2023-05-15T15:38:20;4.93;;;4.40;;
12852;SDS011;6495;51.808;7.478;2023-05-15T16:02:36;4.82;;;2.30;;
12852;SDS011;6495;51.808;7.478;2023-05-15T16:05:58;4.28;;;2.30;;
12852;SDS011;6495;51.808;7.478;2023-05-15T16:43:48;7.25;;;3.50;;
12852;SDS011;6495;51.808;7.478;2023-05-15T17:13:10;8.35;;;5.57;;
12852;SDS011;6495;51.808;7.478;2023-05-15T17:16:26;6.80;;;5.22;;
12852;SDS011;6495;51.808;7.478;2023-05-15T17:19:26;9.38;;;5.72;;
12852;SDS011;6495;51.808;7.478;2023-05-15T17:26:09;12.27;;;6.63;;
12852;SDS011;6495;51.808;7.478;2023-05-15T17:32:08;10.88;;;6.40;;
12852;SDS011;6495;51.808;7.478;2023-05-15T17:34:50;9.73;;;6.40;;
12852;SDS011;6495;51.808;7.478;2023-05-15T17:42:33;10.60;;;6.50;;
12852;SDS011;6495;51.808;7.478;2023-05-15T18:41:58;13.23;;;8.10;;
12852;SDS011;6495;51.808;7.478;2023-05-15T18:44:45;11.52;;;7.38;;
12852;SDS011;6495;51.808;7.478;2023-05-15T18:50:33;10.32;;;7.53;;
12852;SDS011;6495;51.808;7.478;2023-05-15T19:22:30;11.20;;;7.43;;
12852;SDS011;6495;51.808;7.478;2023-05-15T19:28:04;11.10;;;7.00;;
12852;SDS011;6495;51.808;7.478;2023-05-15T19:30:33;10.27;;;6.57;;
12852;SDS011;6495;51.808;7.478;2023-05-15T19:33:15;11.70;;;7.57;;
12852;SDS011;6495;51.808;7.478;2023-05-15T19:35:54;13.48;;;6.68;;
12852;SDS011;6495;51.808;7.478;2023-05-15T19:39:16;13.10;;;7.85;;
12852;SDS011;6495;51.808;7.478;2023-05-15T19:42:20;12.10;;;7.55;;
12852;SDS011;6495;51.808;7.478;2023-05-15T19:44:58;9.55;;;6.57;;
12852;SDS011;6495;51.808;7.478;2023-05-15T19:47:56;10.38;;;6.25;;
12852;SDS011;6495;51.808;7.478;2023-05-15T19:50:36;9.48;;;6.57;;
12852;SDS011;6495;51.808;7.478;2023-05-15T19:53:37;10.48;;;7.20;;
12852;SDS011;6495;51.808;7.478;2023-05-15T19:56:14;12.38;;;7.70;;
12852;SDS011;6495;51.808;7.478;2023-05-15T19:59:11;12.93;;;8.07;;
12852;SDS011;6495;51.808;7.478;2023-05-15T20:01:47;11.88;;;7.07;;
12852;SDS011;6495;51.808;7.478;2023-05-15T20:08:38;10.07;;;6.70;;
12852;SDS011;6495;51.808;7.478;2023-05-15T20:11:29;8.88;;;5.90;;
12852;SDS011;6495;51.808;7.478;2023-05-15T20:14:21;10.68;;;6.93;;
12852;SDS011;6495;51.808;7.478;2023-05-15T20:16:50;10.90;;;7.22;;
12852;SDS011;6495;51.808;7.478;2023-05-15T20:19:18;9.40;;;6.47;;
12852;SDS011;6495;51.808;7.478;2023-05-15T20:21:49;11.18;;;6.90;;
12852;SDS011;6495;51.808;7.478;2023-05-15T20:24:17;9.10;;;6.38;;
12852;SDS011;6495;51.808;7.478;2023-05-15T20:26:52;10.10;;;6.45;;
12852;SDS011;6495;51.808;7.478;2023-05-15T20:29:20;12.13;;;7.40;;
12852;SDS011;6495;51.808;7.478;2023-05-15T20:31:50;9.50;;;6.30;;
12852;SDS011;6495;51.808;7.478;2023-05-15T20:34:40;11.68;;;7.60;;
12852;SDS011;6495;51.808;7.478;2023-05-15T20:37:10;9.38;;;6.78;;
12852;SDS011;6495;51.808;7.478;2023-05-15T20:39:39;13.02;;;7.72;;
12852;SDS011;6495;51.808;7.478;2023-05-15T20:42:09;10.50;;;6.78;;
12852;SDS011;6495;51.808;7.478;2023-05-15T20:44:37;9.75;;;6.85;;
12852;SDS011;6495;51.808;7.478;2023-05-15T20:47:05;10.13;;;6.78;;
12852;SDS011;6495;51.808;7.478;2023-05-15T20:49:34;10.48;;;6.88;;
12852;SDS011;6495;51.808;7.478;2023-05-15T20:52:02;12.35;;;7.43;;
12852;SDS011;6495;51.808;7.478;2023-05-15T20:54:30;10.35;;;6.70;;
12852;SDS011;6495;51.808;7.478;2023-05-15T20:57:01;9.90;;;6.30;;
12852;SDS011;6495;51.808;7.478;2023-05-15T20:59:32;9.57;;;6.53;;
12852;SDS011;6495;51.808;7.478;2023-05-15T21:02:00;10.88;;;7.15;;
12852;SDS011;6495;51.808;7.478;2023-05-15T21:04:29;11.25;;;6.90;;
12852;SDS011;6495;51.808;7.478;2023-05-15T21:06:57;11.20;;;7.25;;
12852;SDS011;6495;51.808;7.478;2023-05-15T21:09:25;10.20;;;6.70;;
12852;SDS011;6495;51.808;7.478;2023-05-15T21:11:53;10.10;;;6.88;;
12852;SDS011;6495;51.808;7.478;2023-05-15T21:14:21;13.00;;;7.15;;
12852;SDS011;6495;51.808;7.478;2023-05-15T21:16:51;11.75;;;7.00;;
12852;SDS011;6495;51.808;7.478;2023-05-15T21:19:19;11.43;;;7.38;;
12852;SDS011;6495;51.808;7.478;2023-05-15T21:21:47;12.35;;;7.15;;
12852;SDS011;6495;51.808;7.478;2023-05-15T21:24:16;13.00;;;7.55;;
12852;SDS011;6495;51.808;7.478;2023-05-15T21:26:44;11.05;;;7.43;;
12852;SDS011;6495;51.808;7.478;2023-05-15T21:29:12;12.68;;;8.15;;
12852;SDS011;6495;51.808;7.478;2023-05-15T21:31:40;13.90;;;8.30;;
12852;SDS011;6495;51.808;7.478;2023-05-15T21:34:10;14.02;;;7.95;;
12852;SDS011;6495;51.808;7.478;2023-05-15T21:36:38;13.68;;;8.23;;
12852;SDS011;6495;51.808;7.478;2023-05-15T21:39:06;13.38;;;6.75;;
12852;SDS011;6495;51.808;7.478;2023-05-15T21:41:35;14.93;;;8.18;;